TimeEDT,TemperatureF,Dew PointF,Humidity,Sea Level PressureIn,VisibilityMPH,Wind Direction,Wind SpeedMPH,Gust SpeedMPH,PrecipitationIn,Events,Conditions,WindDirDegrees,DateUTC
12:06 AM,69.8,69.8,100,29.83,1.8,Calm,Calm,-,N/A,,Partly Cloudy,0,2013-07-23 04:06:00
12:18 AM,69.8,69.8,100,29.83,0.8,Calm,Calm,-,N/A,,Clear,0,2013-07-23 04:18:00
12:28 AM,69.8,69.8,100,29.83,0.2,Calm,Calm,-,N/A,Fog,Fog,0,2013-07-23 04:28:00
12:34 AM,69.8,69.8,100,29.83,0.5,Calm,Calm,-,N/A,Fog,Fog,0,2013-07-23 04:34:00
12:40 AM,69.8,69.8,100,29.83,1.2,Calm,Calm,-,N/A,,Partly Cloudy,0,2013-07-23 04:40:00
12:44 AM,69.8,69.8,100,29.83,4.0,Calm,Calm,-,N/A,,Partly Cloudy,0,2013-07-23 04:44:00
12:53 AM,70.0,70.0,100,29.82,4.0,Calm,Calm,-,N/A,,Partly Cloudy,0,2013-07-23 04:53:00
12:58 AM,69.8,69.8,100,29.83,1.8,Calm,Calm,-,N/A,,Partly Cloudy,0,2013-07-23 04:58:00
1:08 AM,69.8,69.8,100,29.83,0.8,Calm,Calm,-,N/A,,Mostly Cloudy,0,2013-07-23 05:08:00
1:14 AM,69.8,69.8,100,29.83,2.0,Calm,Calm,-,N/A,,Mostly Cloudy,0,2013-07-23 05:14:00
1:28 AM,69.8,69.8,100,29.84,0.8,Calm,Calm,-,N/A,,Mostly Cloudy,0,2013-07-23 05:28:00
1:35 AM,69.8,69.8,100,29.84,0.5,Calm,Calm,-,N/A,Fog,Fog,0,2013-07-23 05:35:00
1:43 AM,69.8,69.8,100,29.84,1.0,Calm,Calm,-,N/A,,Mostly Cloudy,0,2013-07-23 05:43:00
1:48 AM,69.8,69.8,100,29.84,1.8,Calm,Calm,-,N/A,,Scattered Clouds,0,2013-07-23 05:48:00
1:53 AM,69.1,69.1,100,29.83,1.2,Calm,Calm,-,N/A,,Scattered Clouds,0,2013-07-23 05:53:00
1:58 AM,69.8,69.8,100,29.84,1.0,Calm,Calm,-,N/A,,Mist,0,2013-07-23 05:58:00
2:01 AM,69.8,69.8,100,29.84,0.8,Calm,Calm,-,N/A,,Mist,0,2013-07-23 06:01:00
2:08 AM,69.8,69.8,100,29.84,0.8,Calm,Calm,-,N/A,,Mist,0,2013-07-23 06:08:00
2:19 AM,68.0,68.0,100,29.85,0.2,Calm,Calm,-,N/A,Fog,Fog,0,2013-07-23 06:19:00
2:53 AM,68.0,68.0,100,29.84,0.5,Calm,Calm,-,N/A,Fog,Fog,0,2013-07-23 06:53:00
3:09 AM,68.0,68.0,100,29.85,0.5,Calm,Calm,-,N/A,Fog,Fog,0,2013-07-23 07:09:00
3:31 AM,68.0,68.0,100,29.85,0.2,Calm,Calm,-,N/A,Fog,Fog,0,2013-07-23 07:31:00
3:53 AM,66.9,66.9,100,29.83,0.2,Calm,Calm,-,N/A,Fog,Fog,0,2013-07-23 07:53:00
4:07 AM,68.0,68.0,100,29.84,0.8,Calm,Calm,-,N/A,,Mist,0,2013-07-23 08:07:00
4:09 AM,68.0,68.0,100,29.84,1.2,Calm,Calm,-,N/A,,Scattered Clouds,0,2013-07-23 08:09:00
4:22 AM,69.8,69.8,100,29.83,0.8,Calm,Calm,-,N/A,,Mist,0,2013-07-23 08:22:00
4:36 AM,66.2,66.2,100,29.84,0.2,Calm,Calm,-,N/A,Fog,Fog,0,2013-07-23 08:36:00
4:53 AM,66.9,66.9,100,29.82,0.8,Calm,Calm,-,N/A,,Mist,0,2013-07-23 08:53:00
5:24 AM,66.2,66.2,100,29.84,0.2,SSW,3.5,-,N/A,Fog,Fog,200,2013-07-23 09:24:00
5:40 AM,68.0,68.0,100,29.84,1.0,SSW,5.8,-,N/A,,Mist,200,2013-07-23 09:40:00
5:43 AM,68.0,68.0,100,29.83,3.0,SSW,4.6,-,N/A,,Mostly Cloudy,200,2013-07-23 09:43:00
5:50 AM,68.0,68.0,100,29.83,5.0,SSW,5.8,-,N/A,,Scattered Clouds,200,2013-07-23 09:50:00
5:53 AM,69.1,69.1,100,29.82,5.0,South,5.8,-,N/A,,Partly Cloudy,190,2013-07-23 09:53:00
6:53 AM,69.1,69.1,100,29.82,6.0,South,5.8,-,N/A,,Clear,190,2013-07-23 10:53:00
7:53 AM,72.0,71.1,97,29.82,7.0,SSW,3.5,-,N/A,,Clear,210,2013-07-23 11:53:00
8:53 AM,73.9,72.0,93,29.81,10.0,SSW,4.6,-,N/A,,Clear,200,2013-07-23 12:53:00
9:53 AM,78.1,73.0,84,29.81,10.0,SW,5.8,-,N/A,,Scattered Clouds,220,2013-07-23 13:53:00
10:53 AM,81.0,73.0,77,29.82,10.0,WSW,5.8,-,N/A,,Partly Cloudy,250,2013-07-23 14:53:00
11:53 AM,84.0,73.0,69,29.83,10.0,WSW,10.4,-,N/A,,Mostly Cloudy,240,2013-07-23 15:53:00
12:27 PM,80.6,73.4,79,29.84,10.0,SW,12.7,-,N/A,,Mostly Cloudy,220,2013-07-23 16:27:00
12:53 PM,86.0,73.9,67,29.81,10.0,SSW,12.7,-,N/A,,Mostly Cloudy,210,2013-07-23 16:53:00
1:04 PM,86.0,73.4,66,29.82,10.0,WSW,15.0,20.7,N/A,,Mostly Cloudy,240,2013-07-23 17:04:00
1:53 PM,86.0,73.0,65,29.79,10.0,SW,12.7,-,N/A,,Scattered Clouds,230,2013-07-23 17:53:00
2:53 PM,87.1,72.0,61,29.76,10.0,WSW,9.2,-,N/A,,Partly Cloudy,240,2013-07-23 18:53:00
3:53 PM,84.9,73.0,67,29.75,10.0,SW,12.7,-,0.00,,Mostly Cloudy,220,2013-07-23 19:53:00
4:36 PM,84.2,73.4,70,29.77,8.0,SW,8.1,-,N/A,Thunderstorm,Thunderstorm,220,2013-07-23 20:36:00
4:53 PM,82.9,73.0,72,29.76,8.0,WSW,10.4,-,N/A,Thunderstorm,Thunderstorm,240,2013-07-23 20:53:00
5:10 PM,75.2,69.8,83,29.81,5.0,North,16.1,29.9,0.01,Rain-Thunderstorm,Thunderstorms and Rain,350,2013-07-23 21:10:00
5:37 PM,78.8,69.8,74,29.78,10.0,Variable,3.5,-,0.01,,Partly Cloudy,0,2013-07-23 21:37:00
5:53 PM,75.9,70.0,82,29.76,10.0,SE,3.5,-,0.01,,Scattered Clouds,140,2013-07-23 21:53:00
6:53 PM,79.0,70.0,74,29.76,10.0,South,3.5,-,N/A,,Partly Cloudy,180,2013-07-23 22:53:00
7:53 PM,78.1,70.0,76,29.74,10.0,South,6.9,-,N/A,,Clear,190,2013-07-23 23:53:00
8:53 PM,75.9,70.0,82,29.74,10.0,South,4.6,-,N/A,,Clear,190,2013-07-24 00:53:00
9:53 PM,73.0,70.0,90,29.77,10.0,Calm,Calm,-,0.00,Rain,Light Rain,0,2013-07-24 01:53:00
10:53 PM,73.0,71.1,93,29.81,10.0,North,4.6,-,0.00,,Mostly Cloudy,350,2013-07-24 02:53:00
11:53 PM,73.0,66.9,81,29.82,10.0,North,9.2,-,N/A,,Mostly Cloudy,350,2013-07-24 03:53:00